createdAt,value
2023-04-13T00:01:12.342Z,8.40
2023-04-13T00:03:40.237Z,8.30
2023-04-13T00:06:11.369Z,8.20
2023-04-13T00:08:39.177Z,8.20
2023-04-13T00:11:07.881Z,8.20
2023-04-13T00:13:41.679Z,8.30
2023-04-13T00:16:10.745Z,8.30
2023-04-13T00:18:38.424Z,8.30
2023-04-13T00:21:06.496Z,8.30
2023-04-13T00:23:36.210Z,8.30
2023-04-13T00:26:03.753Z,8.30
2023-04-13T00:28:31.229Z,8.20
2023-04-13T00:31:00.008Z,8.10
2023-04-13T00:33:27.276Z,8.00
2023-04-13T00:35:54.479Z,8.10
2023-04-13T00:38:24.284Z,8.10
2023-04-13T00:40:54.970Z,8.00
2023-04-13T00:43:22.695Z,7.90
2023-04-13T00:45:50.284Z,7.90
2023-04-13T00:48:17.835Z,7.80
2023-04-13T00:50:45.340Z,7.70
2023-04-13T00:53:13.918Z,7.80
2023-04-13T00:55:43.073Z,7.80
2023-04-13T00:58:11.126Z,7.80
2023-04-13T01:00:39.546Z,7.80
2023-04-13T01:03:07.238Z,7.80
2023-04-13T01:05:53.809Z,7.80
2023-04-13T01:08:40.323Z,7.70
2023-04-13T01:11:21.565Z,7.90
2023-04-13T01:13:57.782Z,7.90
2023-04-13T01:16:33.472Z,7.90
2023-04-13T01:21:54.832Z,7.90
2023-04-13T01:24:54.622Z,7.90
2023-04-13T01:27:52.979Z,8.00
2023-04-13T01:30:23.577Z,8.00
2023-04-13T01:32:56.319Z,8.00
2023-04-13T01:35:25.763Z,8.00
2023-04-13T01:37:54.932Z,8.10
2023-04-13T01:40:30.418Z,8.10
2023-04-13T01:42:58.952Z,8.20
2023-04-13T01:45:50.026Z,8.10
2023-04-13T01:48:28.799Z,8.20
2023-04-13T01:51:24.682Z,8.10
2023-04-13T01:54:16.491Z,8.10
2023-04-13T01:56:47.048Z,8.20
2023-04-13T01:59:16.822Z,8.20
2023-04-13T02:01:45.197Z,8.20
2023-04-13T02:04:14.086Z,8.30
2023-04-13T02:06:43.469Z,8.40
2023-04-13T02:09:11.261Z,8.60
2023-04-13T02:11:38.548Z,8.80
2023-04-13T02:14:07.889Z,8.90
2023-04-13T02:16:35.860Z,8.90
2023-04-13T02:19:03.111Z,8.90
2023-04-13T02:21:30.993Z,8.90
2023-04-13T02:23:58.488Z,8.90
2023-04-13T02:26:26.340Z,8.90
2023-04-13T02:28:53.760Z,8.90
2023-04-13T02:31:23.549Z,8.80
2023-04-13T02:33:51.921Z,8.80
2023-04-13T02:36:20.330Z,8.80
2023-04-13T02:38:55.397Z,8.80
2023-04-13T02:41:26.472Z,8.80
2023-04-13T02:43:53.849Z,8.90
2023-04-13T02:46:24.463Z,8.90
2023-04-13T02:49:06.407Z,8.90
2023-04-13T02:51:42.918Z,8.90
2023-04-13T02:54:12.033Z,8.90
2023-04-13T02:56:44.971Z,8.80
2023-04-13T02:59:12.667Z,8.80
2023-04-13T03:01:40.473Z,8.80
2023-04-13T03:04:11.119Z,8.90
2023-04-13T03:06:38.462Z,8.90
2023-04-13T03:09:06.402Z,8.90
2023-04-13T03:11:42.317Z,8.90
2023-04-13T03:14:23.810Z,8.90
2023-04-13T03:17:00.135Z,8.80
2023-04-13T03:19:36.272Z,8.90
2023-04-13T03:22:04.526Z,8.80
2023-04-13T03:24:35.237Z,8.80
2023-04-13T03:27:06.959Z,8.80
2023-04-13T03:29:39.328Z,8.80
2023-04-13T03:32:09.414Z,8.70
2023-04-13T03:34:44.682Z,8.70
2023-04-13T03:37:14.371Z,8.70
2023-04-13T03:39:42.353Z,8.70
2023-04-13T03:42:13.881Z,8.60
2023-04-13T03:44:47.173Z,8.60
2023-04-13T03:47:14.631Z,8.60
2023-04-13T03:49:41.946Z,8.60
2023-04-13T03:52:09.975Z,8.50
2023-04-13T03:54:41.042Z,8.50
2023-04-13T03:57:09.125Z,8.50
2023-04-13T03:59:36.996Z,8.50
2023-04-13T04:02:07.656Z,8.50
2023-04-13T04:04:39.516Z,8.60
2023-04-13T04:07:08.021Z,8.60
2023-04-13T04:09:36.096Z,8.60
2023-04-13T04:12:04.047Z,8.60
2023-04-13T04:14:41.423Z,8.60
2023-04-13T04:17:15.201Z,8.60
2023-04-13T04:19:43.514Z,8.60
2023-04-13T04:22:10.707Z,8.60
2023-04-13T04:24:44.387Z,8.70
2023-04-13T04:27:14.531Z,8.70
2023-04-13T04:29:49.407Z,8.80
2023-04-13T04:32:26.167Z,8.80
2023-04-13T04:34:55.179Z,8.70
2023-04-13T04:37:26.268Z,8.70
2023-04-13T04:40:09.988Z,8.70
2023-04-13T04:42:39.465Z,8.70
2023-04-13T04:45:17.187Z,8.70
2023-04-13T04:47:49.043Z,8.70
2023-04-13T04:50:29.053Z,8.70
2023-04-13T04:53:05.602Z,8.70
2023-04-13T04:55:34.115Z,8.70
2023-04-13T04:58:01.437Z,8.70
2023-04-13T05:00:31.954Z,8.70
2023-04-13T05:03:10.100Z,8.70
2023-04-13T05:05:41.442Z,8.70
2023-04-13T05:08:13.311Z,8.70
2023-04-13T05:10:46.771Z,8.70
2023-04-13T05:13:14.439Z,8.80
2023-04-13T05:15:46.649Z,8.70
2023-04-13T05:18:15.865Z,8.80
2023-04-13T05:20:43.002Z,8.80
2023-04-13T05:23:11.272Z,8.80
2023-04-13T05:25:45.729Z,8.80
2023-04-13T05:28:22.035Z,8.80
2023-04-13T05:30:49.888Z,8.80
2023-04-13T05:33:18.169Z,8.80
2023-04-13T05:35:48.873Z,8.80
2023-04-13T05:38:16.517Z,8.80
2023-04-13T05:40:45.326Z,8.80
2023-04-13T05:43:13.488Z,8.80
2023-04-13T05:45:46.937Z,8.90
2023-04-13T05:48:16.073Z,8.90
2023-04-13T05:50:45.490Z,8.90
2023-04-13T05:53:14.143Z,8.90
2023-04-13T05:55:48.404Z,8.90
2023-04-13T05:58:19.135Z,8.90
2023-04-13T06:00:49.339Z,8.90
2023-04-13T06:03:26.136Z,8.90
2023-04-13T06:05:53.525Z,8.90
2023-04-13T06:08:21.978Z,8.90
2023-04-13T06:10:52.161Z,8.90
2023-04-13T06:13:19.545Z,8.90
2023-04-13T06:15:46.900Z,8.90
2023-04-13T06:18:14.148Z,8.90
2023-04-13T06:20:41.719Z,9.00
2023-04-13T06:23:09.646Z,9.00
2023-04-13T06:25:36.862Z,9.10
2023-04-13T06:28:05.329Z,9.10
2023-04-13T06:30:37.408Z,9.10
2023-04-13T06:33:10.607Z,9.10
2023-04-13T06:35:38.776Z,9.10
2023-04-13T06:38:06.190Z,9.10
2023-04-13T06:40:49.243Z,9.10
2023-04-13T06:43:28.735Z,9.10
2023-04-13T06:46:32.237Z,9.10
2023-04-13T06:49:06.541Z,9.10
2023-04-13T06:51:34.820Z,9.10
2023-04-13T06:54:02.155Z,9.10
2023-04-13T06:56:29.552Z,9.10
2023-04-13T06:59:02.873Z,9.20
2023-04-13T07:01:32.176Z,9.20
2023-04-13T07:04:00.210Z,9.10
2023-04-13T07:06:29.055Z,9.20
2023-04-13T07:08:57.588Z,9.20
2023-04-13T07:11:28.351Z,9.30
2023-04-13T07:13:55.620Z,9.20
2023-04-13T07:16:24.674Z,9.30
2023-04-13T07:18:52.514Z,9.20
2023-04-13T07:21:19.669Z,9.30
2023-04-13T07:23:56.860Z,9.20
2023-04-13T07:26:24.832Z,9.30
2023-04-13T07:28:51.992Z,9.30
2023-04-13T07:31:22.843Z,9.20
2023-04-13T07:33:53.156Z,9.20
2023-04-13T07:36:27.031Z,9.20
2023-04-13T07:38:58.611Z,9.20
2023-04-13T07:41:27.375Z,9.30
2023-04-13T07:43:59.228Z,9.30
2023-04-13T07:46:27.383Z,9.30
2023-04-13T07:48:57.042Z,9.50
2023-04-13T07:51:30.175Z,9.40
2023-04-13T07:53:58.040Z,9.50
2023-04-13T07:56:30.312Z,9.50
2023-04-13T07:58:58.487Z,9.50
2023-04-13T08:01:26.550Z,9.70
2023-04-13T08:03:55.841Z,9.80
2023-04-13T08:06:27.752Z,9.70
2023-04-13T08:08:55.629Z,9.70
2023-04-13T08:11:24.178Z,9.80
2023-04-13T08:13:57.307Z,9.70
2023-04-13T08:16:25.029Z,9.70
2023-04-13T08:18:53.040Z,9.70
2023-04-13T08:21:21.296Z,9.70
2023-04-13T08:23:49.769Z,10.00
2023-04-13T08:26:19.152Z,10.10
2023-04-13T08:28:49.314Z,10.00
2023-04-13T08:31:17.736Z,9.80
2023-04-13T08:33:52.225Z,9.60
2023-04-13T08:36:19.609Z,9.60
2023-04-13T08:38:52.379Z,9.60
2023-04-13T08:41:21.894Z,9.50
2023-04-13T08:43:51.975Z,9.50
2023-04-13T08:49:05.378Z,9.40
2023-04-13T08:51:46.202Z,9.30
2023-04-13T08:54:16.406Z,9.30
2023-04-13T08:56:50.147Z,9.40
2023-04-13T08:59:22.345Z,9.50
2023-04-13T09:02:02.013Z,9.50
2023-04-13T09:07:04.795Z,9.70
2023-04-13T09:09:38.959Z,9.80
2023-04-13T09:12:06.464Z,9.80
2023-04-13T12:04:27.591Z,9.30
2023-04-13T12:06:56.072Z,9.30
2023-04-13T12:09:36.954Z,9.50
2023-04-13T12:17:41.170Z,9.90
2023-04-13T12:20:16.465Z,9.90
2023-04-13T12:27:40.488Z,10.00
2023-04-13T12:30:12.994Z,10.10
2023-04-13T12:32:45.969Z,10.20
2023-04-13T12:35:13.976Z,10.00
2023-04-13T12:37:42.516Z,10.10
2023-04-13T12:40:12.514Z,10.00
2023-04-13T12:42:40.863Z,10.30
2023-04-13T12:45:09.776Z,10.60
2023-04-13T12:47:37.987Z,10.70
2023-04-13T12:50:06.813Z,10.40
2023-04-13T12:52:34.983Z,10.30
2023-04-13T12:55:02.444Z,10.10
2023-04-13T12:57:30.524Z,10.10
2023-04-13T12:59:58.056Z,10.20
2023-04-13T13:02:27.379Z,10.40
2023-04-13T13:04:57.527Z,10.30
2023-04-13T13:07:24.766Z,10.40
2023-04-13T13:09:52.076Z,10.10
2023-04-13T13:12:19.337Z,10.50
2023-04-13T13:14:46.556Z,10.70
2023-04-13T13:17:13.689Z,11.10
2023-04-13T13:19:41.014Z,11.30
2023-04-13T13:22:08.266Z,10.90
2023-04-13T13:24:35.431Z,10.60
2023-04-13T13:27:37.452Z,10.90
2023-04-13T13:29:50.080Z,10.80
2023-04-13T13:32:18.754Z,10.50
2023-04-13T13:34:47.349Z,10.70
2023-04-13T13:37:14.507Z,10.60
2023-04-13T13:39:42.651Z,11.00
2023-04-13T13:42:09.947Z,11.60
2023-04-13T13:44:37.490Z,11.50
2023-04-13T13:47:04.890Z,11.20
2023-04-13T13:49:32.225Z,10.40
2023-04-13T13:52:10.810Z,10.50
2023-04-13T13:54:50.116Z,10.10
2023-04-13T13:57:17.686Z,9.90
2023-04-13T13:59:45.263Z,9.80
2023-04-13T14:02:13.850Z,9.70
2023-04-13T14:04:41.306Z,9.80
2023-04-13T14:07:09.635Z,9.90
2023-04-13T14:09:37.641Z,10.10
2023-04-13T14:12:05.103Z,10.00
2023-04-13T14:14:32.396Z,9.90
2023-04-13T14:16:59.545Z,9.80
2023-04-13T14:19:27.285Z,9.70
2023-04-13T14:21:56.729Z,9.30
2023-04-13T14:24:26.260Z,9.20
2023-04-13T14:26:53.774Z,9.30
2023-04-13T14:29:21.053Z,9.20
2023-04-13T14:31:48.292Z,9.30
2023-04-13T14:34:15.723Z,9.50
2023-04-13T14:36:42.846Z,9.60
2023-04-13T14:39:10.314Z,9.60
2023-04-13T14:41:37.570Z,9.60
2023-04-13T14:44:04.827Z,9.70
2023-04-13T14:46:32.025Z,9.70
2023-04-13T14:48:59.494Z,9.80
2023-04-13T14:51:29.120Z,9.60
2023-04-13T14:53:57.686Z,9.50
2023-04-13T14:56:26.707Z,9.60
2023-04-13T14:58:53.833Z,9.60
2023-04-13T15:01:22.658Z,9.70
2023-04-13T15:03:50.138Z,9.70
2023-04-13T15:06:17.790Z,9.70
2023-04-13T15:08:45.696Z,9.70
2023-04-13T15:11:13.301Z,9.60
2023-04-13T15:13:42.759Z,9.60
2023-04-13T15:16:10.065Z,9.50
2023-04-13T15:18:37.400Z,9.40
2023-04-13T15:21:04.988Z,9.40
2023-04-13T15:23:36.641Z,9.40
2023-04-13T15:26:03.995Z,9.40
2023-04-13T15:28:31.178Z,9.40
2023-04-13T15:30:58.429Z,9.50
2023-04-13T15:33:25.852Z,9.50
2023-04-13T15:35:53.331Z,9.40
2023-04-13T15:38:20.816Z,9.30
2023-04-13T15:40:48.035Z,9.30
2023-04-13T15:43:15.420Z,9.30
2023-04-13T15:45:42.547Z,9.40
2023-04-13T15:48:11.299Z,9.30
2023-04-13T15:50:38.658Z,9.20
2023-04-13T15:53:07.213Z,9.30
2023-04-13T15:55:35.004Z,9.20
2023-04-13T15:58:04.096Z,9.20
2023-04-13T16:00:31.963Z,9.10
2023-04-13T16:02:59.492Z,9.10
2023-04-13T16:05:27.072Z,9.20
2023-04-13T16:07:55.049Z,9.20
2023-04-13T16:10:22.277Z,9.30
2023-04-13T16:12:50.357Z,9.30
2023-04-13T16:15:19.528Z,9.30
2023-04-13T16:17:48.476Z,9.20
2023-04-13T16:20:15.794Z,9.30
2023-04-13T16:22:48.577Z,9.40
2023-04-13T16:28:24.488Z,9.30
2023-04-13T16:30:51.750Z,9.20
2023-04-13T16:33:18.925Z,9.20
2023-04-13T16:35:46.480Z,9.20
2023-04-13T16:38:13.714Z,9.10
2023-04-13T16:40:40.878Z,9.10
2023-04-13T16:43:08.115Z,9.20
2023-04-13T16:45:37.923Z,9.20
2023-04-13T16:48:06.405Z,9.10
2023-04-13T16:50:33.715Z,9.20
2023-04-13T16:53:01.031Z,9.10
2023-04-13T16:55:28.841Z,9.10
2023-04-13T16:57:57.378Z,9.00
2023-04-13T17:00:25.055Z,9.00
2023-04-13T17:02:52.338Z,9.00
2023-04-13T17:05:19.738Z,8.90
2023-04-13T17:07:48.402Z,8.90
2023-04-13T17:10:17.574Z,8.90
2023-04-13T17:12:44.859Z,8.90
2023-04-13T17:15:12.272Z,8.90
2023-04-13T17:17:39.366Z,8.80
2023-04-13T17:20:07.631Z,8.80
2023-04-13T17:22:34.777Z,8.70
2023-04-13T17:25:01.955Z,8.70
2023-04-13T17:27:29.138Z,8.70
2023-04-13T17:29:57.654Z,8.60
2023-04-13T17:32:25.239Z,8.60
2023-04-13T17:34:52.518Z,8.60
2023-04-13T17:37:20.180Z,8.50
2023-04-13T17:39:47.877Z,8.50
2023-04-13T17:42:15.549Z,8.50
2023-04-13T17:44:43.901Z,8.40
2023-04-13T17:47:11.236Z,8.40
2023-04-13T17:49:38.850Z,8.40
2023-04-13T17:52:06.510Z,8.40
2023-04-13T17:54:33.826Z,8.40
2023-04-13T17:57:02.033Z,8.40
2023-04-13T17:59:29.294Z,8.40
2023-04-13T18:01:59.384Z,8.40
2023-04-13T18:04:26.982Z,8.40
2023-04-13T18:06:56.630Z,8.40
2023-04-13T18:09:25.048Z,8.40
2023-04-13T18:11:52.240Z,8.40
2023-04-13T18:14:19.591Z,8.30
2023-04-13T18:16:47.030Z,8.30
2023-04-13T18:19:14.266Z,8.30
2023-04-13T18:21:41.438Z,8.20
2023-04-13T18:24:08.601Z,8.20
2023-04-13T18:26:36.063Z,8.20
2023-04-13T18:29:03.425Z,8.10
2023-04-13T18:31:31.105Z,8.10
2023-04-13T18:33:58.749Z,8.10
2023-04-13T18:36:26.541Z,8.10
2023-04-13T18:38:55.044Z,8.10
2023-04-13T18:41:23.145Z,8.10
2023-04-13T18:43:50.440Z,8.10
2023-04-13T18:46:17.752Z,8.10
2023-04-13T18:48:44.912Z,8.10
2023-04-13T18:51:12.539Z,8.10
2023-04-13T18:53:39.751Z,8.10
2023-04-13T18:56:06.930Z,8.10
2023-04-13T18:58:34.039Z,8.00
2023-04-13T19:01:01.327Z,8.10
2023-04-13T19:03:28.804Z,8.00
2023-04-13T19:05:56.746Z,8.00
2023-04-13T19:08:24.227Z,8.00
2023-04-13T19:10:51.880Z,8.00
2023-04-13T19:13:19.111Z,8.00
2023-04-13T19:15:47.125Z,7.90
2023-04-13T19:18:14.302Z,7.90
2023-04-13T19:20:41.619Z,7.90
2023-04-13T19:23:09.808Z,8.00
2023-04-13T19:25:37.283Z,7.90
2023-04-13T19:28:05.158Z,7.90
2023-04-13T19:30:32.347Z,7.90
2023-04-13T19:32:59.949Z,7.80
2023-04-13T19:35:27.372Z,7.80
2023-04-13T19:37:55.236Z,7.70
2023-04-13T19:40:23.353Z,7.70
2023-04-13T19:42:50.627Z,7.70
2023-04-13T19:45:18.408Z,7.70
2023-04-13T19:47:45.802Z,7.80
2023-04-13T19:50:15.259Z,7.80
2023-04-13T19:52:43.061Z,7.80
2023-04-13T19:55:11.138Z,7.90
2023-04-13T19:57:42.603Z,7.80
2023-04-13T20:00:20.766Z,7.80
2023-04-13T20:02:49.924Z,7.80
2023-04-13T20:05:20.020Z,7.80
2023-04-13T20:07:47.705Z,7.80
2023-04-13T20:10:14.971Z,7.80
2023-04-13T20:12:42.308Z,7.70
2023-04-13T20:15:09.738Z,7.70
2023-04-13T20:17:36.956Z,7.70
2023-04-13T20:20:06.279Z,7.70
2023-04-13T20:22:33.718Z,7.70
2023-04-13T20:25:00.976Z,7.70
2023-04-13T20:27:29.858Z,7.70
2023-04-13T20:29:57.113Z,7.70
2023-04-13T20:32:24.629Z,7.70
2023-04-13T20:34:52.242Z,7.70
2023-04-13T20:37:19.518Z,7.70
2023-04-13T20:39:53.107Z,7.70
2023-04-13T20:42:22.629Z,7.70
2023-04-13T20:44:57.849Z,7.70
2023-04-13T20:47:31.543Z,7.70
2023-04-13T20:50:00.314Z,7.70
2023-04-13T20:52:30.293Z,7.60
2023-04-13T20:54:58.521Z,7.70
2023-04-13T20:57:25.911Z,7.60
2023-04-13T20:59:54.460Z,7.60
2023-04-13T21:02:21.903Z,7.60
2023-04-13T21:04:49.412Z,7.60
2023-04-13T21:07:16.803Z,7.60
2023-04-13T21:09:44.244Z,7.60
2023-04-13T21:12:11.689Z,7.60
2023-04-13T21:14:38.850Z,7.60
2023-04-13T21:17:06.079Z,7.60
2023-04-13T21:19:34.589Z,7.60
2023-04-13T21:22:02.819Z,7.60
2023-04-13T21:24:29.992Z,7.60
2023-04-13T21:26:57.942Z,7.60
2023-04-13T21:29:25.206Z,7.60
2023-04-13T21:31:52.543Z,7.50
2023-04-13T21:34:19.883Z,7.60
2023-04-13T21:39:17.405Z,7.60
2023-04-13T21:41:44.572Z,7.50
2023-04-13T21:44:28.240Z,7.50
2023-04-13T21:46:56.228Z,7.50
2023-04-13T21:49:23.429Z,7.50
